createdAt,value
2022-08-16T00:01:42.732Z,99156.50
2022-08-16T00:04:11.881Z,99157.13
2022-08-16T00:06:39.694Z,99160.03
2022-08-16T00:09:06.830Z,99152.56
2022-08-16T00:11:34.202Z,99152.09
2022-08-16T00:14:01.942Z,99150.22
2022-08-16T00:17:06.163Z,99156.88
2022-08-16T00:19:24.498Z,99157.19
2022-08-16T00:22:01.018Z,99161.72
2022-08-16T00:24:32.695Z,99152.03
2022-08-16T00:27:02.136Z,99150.63
2022-08-16T00:29:30.187Z,99152.78
2022-08-16T00:31:59.996Z,99157.91
2022-08-16T00:34:44.373Z,99156.47
2022-08-16T00:37:18.496Z,99153.66
2022-08-16T00:39:47.897Z,99161.88
2022-08-16T00:42:29.564Z,99155.81
2022-08-16T00:44:59.341Z,99160.59
2022-08-16T00:47:30.070Z,99160.13
2022-08-16T00:49:57.269Z,99158.59
2022-08-16T00:52:30.167Z,99153.59
2022-08-16T00:54:59.472Z,99159.94
2022-08-16T00:57:27.578Z,99162.91
2022-08-16T01:00:19.866Z,99162.91
2022-08-16T01:02:48.849Z,99161.63
2022-08-16T01:05:16.329Z,99171.72
2022-08-16T01:07:50.795Z,99162.56
2022-08-16T01:10:31.419Z,99173.41
2022-08-16T01:13:00.245Z,99180.56
2022-08-16T01:15:28.101Z,99177.47
2022-08-16T01:17:57.498Z,99183.81
2022-08-16T01:20:30.614Z,99184.09
2022-08-16T01:22:59.549Z,99183.31
2022-08-16T01:25:39.625Z,99193.41
2022-08-16T01:28:09.810Z,99192.75
2022-08-16T01:30:40.170Z,99193.34
2022-08-16T01:33:19.278Z,99198.44
2022-08-16T01:36:00.583Z,99196.72
2022-08-16T01:38:31.266Z,99197.28
2022-08-16T01:41:10.232Z,99207.06
2022-08-16T01:43:38.946Z,99202.41
2022-08-16T01:46:30.175Z,99193.81
2022-08-16T01:49:05.763Z,99199.38
2022-08-16T01:51:32.630Z,99197.03
2022-08-16T01:54:00.678Z,99192.19
2022-08-16T01:56:36.484Z,99196.38
2022-08-16T01:59:06.311Z,99190.91
2022-08-16T02:01:42.494Z,99194.13
2022-08-16T02:04:11.789Z,99206.75
2022-08-16T02:06:46.092Z,99209.06
2022-08-16T02:09:17.878Z,99205.09
2022-08-16T02:11:53.339Z,99214.25
2022-08-16T02:14:22.550Z,99207.59
2022-08-16T02:16:57.757Z,99220.50
2022-08-16T02:19:58.486Z,99239.19
2022-08-16T02:22:34.049Z,99250.56
2022-08-16T02:25:09.940Z,99239.78
2022-08-16T02:27:42.082Z,99241.63
2022-08-16T02:30:36.746Z,99235.88
2022-08-16T02:33:03.300Z,99244.41
2022-08-16T02:35:31.298Z,99238.66
2022-08-16T02:38:01.837Z,99231.78
2022-08-16T02:40:36.725Z,99229.22
2022-08-16T02:43:04.475Z,99230.34
2022-08-16T02:45:31.978Z,99238.25
2022-08-16T02:48:01.317Z,99228.31
2022-08-16T02:50:54.256Z,99226.72
2022-08-16T02:53:30.556Z,99231.31
2022-08-16T02:55:59.172Z,99224.78
2022-08-16T02:58:27.869Z,99233.16
2022-08-16T03:00:57.830Z,99230.34
2022-08-16T03:03:26.591Z,99230.06
2022-08-16T03:05:54.344Z,99222.75
2022-08-16T03:08:51.827Z,99231.69
2022-08-16T03:11:16.597Z,99230.44
2022-08-16T03:13:51.176Z,99227.47
2022-08-16T03:16:37.718Z,99219.28
2022-08-16T03:19:08.395Z,99225.91
2022-08-16T03:21:37.763Z,99231.81
2022-08-16T03:24:29.236Z,99228.09
2022-08-16T03:26:58.652Z,99233.19
2022-08-16T03:29:30.536Z,99236.13
2022-08-16T03:32:01.134Z,99234.84
2022-08-16T03:34:30.024Z,99237.75
2022-08-16T03:36:57.523Z,99246.19
2022-08-16T03:39:24.903Z,99230.75
2022-08-16T03:41:59.972Z,99226.84
2022-08-16T03:44:43.879Z,99234.75
2022-08-16T03:47:12.157Z,99243.44
2022-08-16T03:49:41.026Z,99247.44
2022-08-16T03:52:10.053Z,99240.81
2022-08-16T03:54:38.154Z,99247.13
2022-08-16T03:57:05.965Z,99239.03
2022-08-16T03:59:38.401Z,99249.59
2022-08-16T04:02:22.186Z,99234.75
2022-08-16T04:04:51.298Z,99230.03
2022-08-16T04:07:18.626Z,99239.81
2022-08-16T04:09:47.692Z,99245.09
2022-08-16T04:12:54.482Z,99246.09
2022-08-16T04:15:03.613Z,99241.59
2022-08-16T04:17:38.267Z,99255.25
2022-08-16T04:20:23.191Z,99253.59
2022-08-16T04:22:57.318Z,99243.63
2022-08-16T04:25:28.428Z,99242.97
2022-08-16T04:27:57.114Z,99232.91
2022-08-16T04:30:44.288Z,99227.13
2022-08-16T04:33:15.004Z,99236.78
2022-08-16T04:35:43.240Z,99235.41
2022-08-16T04:38:21.163Z,99243.31
2022-08-16T04:40:51.537Z,99242.47
2022-08-16T04:43:22.012Z,99237.47
2022-08-16T04:45:59.935Z,99219.84
2022-08-16T04:48:34.370Z,99240.91
2022-08-16T04:51:12.024Z,99252.91
2022-08-16T04:53:50.378Z,99252.50
2022-08-16T04:56:19.711Z,99239.50
2022-08-16T04:58:47.317Z,99251.53
2022-08-16T05:01:18.128Z,99248.38
2022-08-16T05:04:00.262Z,99253.09
2022-08-16T05:06:45.638Z,99264.91
2022-08-16T05:09:28.767Z,99268.09
2022-08-16T05:11:58.173Z,99262.25
2022-08-16T05:14:45.293Z,99260.66
2022-08-16T05:17:15.635Z,99265.22
2022-08-16T05:19:46.812Z,99270.00
2022-08-16T05:22:28.665Z,99270.28
2022-08-16T05:24:59.632Z,99264.69
2022-08-16T05:27:43.153Z,99283.28
2022-08-16T05:30:35.604Z,99270.69
2022-08-16T05:33:01.434Z,99270.88
2022-08-16T05:35:28.789Z,99274.22
2022-08-16T05:38:04.826Z,99285.00
2022-08-16T05:40:57.291Z,99288.28
2022-08-16T05:43:32.020Z,99284.16
2022-08-16T05:46:00.395Z,99282.22
2022-08-16T05:48:27.407Z,99281.22
2022-08-16T05:51:03.192Z,99279.19
2022-08-16T05:53:31.107Z,99287.94
2022-08-16T05:56:19.437Z,99290.94
2022-08-16T05:58:48.958Z,99279.34
2022-08-16T06:01:18.725Z,99274.47
2022-08-16T06:03:53.916Z,99275.72
2022-08-16T06:06:40.447Z,99274.50
2022-08-16T06:09:11.803Z,99261.91
2022-08-16T06:11:43.131Z,99269.41
2022-08-16T06:14:11.381Z,99279.19
2022-08-16T06:16:42.140Z,99281.13
2022-08-16T06:19:09.581Z,99288.06
2022-08-16T06:21:43.145Z,99293.75
2022-08-16T06:24:52.770Z,99295.03
2022-08-16T06:26:58.541Z,99291.59
2022-08-16T06:29:31.511Z,99316.91
2022-08-16T06:31:59.524Z,99327.00
2022-08-16T06:34:55.115Z,99318.44
2022-08-16T06:37:16.546Z,99337.91
2022-08-16T06:39:49.363Z,99343.19
2022-08-16T06:42:47.127Z,99343.03
2022-08-16T06:45:50.306Z,99351.50
2022-08-16T06:48:32.245Z,99349.94
2022-08-16T06:51:03.445Z,99351.25
2022-08-16T06:53:33.825Z,99353.47
2022-08-16T06:56:06.151Z,99366.72
2022-08-16T06:58:59.773Z,99376.91
2022-08-16T07:01:46.330Z,99376.28
2022-08-16T07:04:28.199Z,99376.97
2022-08-16T07:06:59.806Z,99381.19
2022-08-16T07:09:29.769Z,99369.63
2022-08-16T07:12:03.557Z,99373.53
2022-08-16T07:14:37.997Z,99380.66
2022-08-16T07:17:08.410Z,99382.41
2022-08-16T07:20:03.813Z,99381.09
2022-08-16T07:22:42.573Z,99387.06
2022-08-16T07:25:24.595Z,99387.19
2022-08-16T07:27:51.990Z,99386.44
2022-08-16T07:30:38.408Z,99385.19
2022-08-16T07:33:52.487Z,99388.69
2022-08-16T07:36:09.803Z,99396.63
2022-08-16T07:38:42.681Z,99397.84
2022-08-16T07:41:10.983Z,99389.56
2022-08-16T07:43:45.635Z,99390.91
2022-08-16T07:46:37.530Z,99400.97
2022-08-16T07:49:11.474Z,99401.41
2022-08-16T07:51:40.338Z,99401.19
2022-08-16T07:54:10.913Z,99393.09
2022-08-16T07:56:44.986Z,99402.63
2022-08-16T07:59:12.559Z,99398.25
2022-08-16T08:01:41.511Z,99400.38
2022-08-16T08:04:13.280Z,99395.31
2022-08-16T08:06:44.165Z,99396.06
2022-08-16T08:09:14.937Z,99394.94
2022-08-16T08:12:01.291Z,99390.75
2022-08-16T08:14:37.778Z,99374.03
2022-08-16T08:17:08.508Z,99388.38
2022-08-16T08:19:37.500Z,99394.22
2022-08-16T08:22:19.108Z,99385.63
2022-08-16T08:24:59.607Z,99383.34
2022-08-16T08:27:32.595Z,99380.72
2022-08-16T08:30:44.007Z,99388.38
2022-08-16T08:32:58.123Z,99384.81
2022-08-16T08:35:30.761Z,99387.69
2022-08-16T08:37:59.090Z,99378.59
2022-08-16T08:40:29.190Z,99384.78
2022-08-16T08:43:00.937Z,99383.75
2022-08-16T08:45:52.437Z,99392.53
2022-08-16T08:48:33.281Z,99379.19
2022-08-16T08:51:09.160Z,99384.63
2022-08-16T08:53:47.176Z,99381.47
2022-08-16T08:56:30.070Z,99385.13
2022-08-16T08:59:13.445Z,99381.50
2022-08-16T09:01:57.682Z,99375.78
2022-08-16T09:04:28.840Z,99382.44
2022-08-16T09:06:58.345Z,99389.72
2022-08-16T09:09:33.527Z,99384.22
2022-08-16T09:12:06.133Z,99374.78
2022-08-16T09:14:50.826Z,99374.88
2022-08-16T09:17:47.161Z,99378.47
2022-08-16T09:20:16.679Z,99381.44
2022-08-16T09:22:51.292Z,99374.72
2022-08-16T09:25:25.799Z,99391.63
2022-08-16T09:27:57.657Z,99386.94
2022-08-16T09:30:34.348Z,99392.00
2022-08-16T09:33:11.573Z,99385.44
2022-08-16T09:35:39.195Z,99369.56
2022-08-16T09:38:09.940Z,99378.00
2022-08-16T09:40:44.058Z,99370.53
2022-08-16T09:43:21.034Z,99368.28
2022-08-16T09:46:00.081Z,99372.72
2022-08-16T09:48:44.036Z,99363.75
2022-08-16T09:51:13.229Z,99366.97
2022-08-16T09:53:41.792Z,99372.44
2022-08-16T09:56:23.055Z,99364.56
2022-08-16T09:59:04.961Z,99366.72
2022-08-16T10:01:43.575Z,99363.16
2022-08-16T10:04:31.278Z,99365.41
2022-08-16T10:07:02.064Z,99357.94
2022-08-16T10:09:53.696Z,99355.19
2022-08-16T10:12:42.974Z,99359.75
2022-08-16T10:15:15.547Z,99355.25
2022-08-16T10:17:59.662Z,99358.97
2022-08-16T10:20:31.493Z,99354.19
2022-08-16T10:23:03.717Z,99349.69
2022-08-16T10:27:16.381Z,99365.59
2022-08-16T10:28:30.392Z,99356.75
2022-08-16T10:31:00.762Z,99361.00
2022-08-16T10:33:33.578Z,99351.22
2022-08-16T10:36:07.578Z,99348.16
2022-08-16T10:38:36.542Z,99350.91
2022-08-16T10:41:07.986Z,99355.78
2022-08-16T10:43:38.099Z,99353.81
2022-08-16T10:46:39.228Z,99361.13
2022-08-16T10:48:55.064Z,99355.38
2022-08-16T10:51:33.701Z,99350.84
2022-08-16T10:54:29.228Z,99341.25
2022-08-16T10:57:00.902Z,99350.41
2022-08-16T10:59:45.758Z,99351.31
2022-08-16T11:02:57.479Z,99356.28
2022-08-16T11:05:13.976Z,99355.88
2022-08-16T11:07:52.289Z,99350.91
2022-08-16T11:13:57.470Z,99349.91
2022-08-16T11:16:01.506Z,99351.84
2022-08-16T11:19:06.484Z,99351.03
2022-08-16T11:22:11.130Z,99349.13
2022-08-16T11:24:42.179Z,99361.41
2022-08-16T11:27:23.711Z,99360.41
2022-08-16T11:29:54.776Z,99351.63
2022-08-16T11:32:32.418Z,99349.69
2022-08-16T11:35:15.007Z,99345.84
2022-08-16T11:40:36.301Z,99353.94
2022-08-16T11:43:04.600Z,99343.53
2022-08-16T11:45:33.840Z,99351.25
2022-08-16T11:48:04.477Z,99357.38
2022-08-16T11:50:33.589Z,99361.19
2022-08-16T11:53:02.254Z,99358.88
2022-08-16T11:55:30.961Z,99354.47
2022-08-16T11:57:57.923Z,99357.09
2022-08-16T12:00:34.135Z,99348.75
2022-08-16T12:03:12.461Z,99352.09
2022-08-16T12:05:40.563Z,99356.25
2022-08-16T12:08:09.402Z,99350.13
2022-08-16T12:10:37.682Z,99351.69
2022-08-16T12:13:07.200Z,99351.69
2022-08-16T12:15:37.746Z,99352.34
2022-08-16T12:18:06.936Z,99348.94
2022-08-16T12:20:37.532Z,99352.41
2022-08-16T12:23:06.152Z,99343.22
2022-08-16T12:25:34.847Z,99347.06
2022-08-16T12:28:02.910Z,99340.97
2022-08-16T12:30:37.722Z,99346.72
2022-08-16T12:33:07.140Z,99342.91
2022-08-16T12:35:35.901Z,99335.66
2022-08-16T12:38:08.800Z,99338.69
2022-08-16T12:40:57.134Z,99331.44
2022-08-16T12:43:25.549Z,99328.41
2022-08-16T12:45:54.279Z,99328.88
2022-08-16T12:48:43.466Z,99326.59
2022-08-16T12:51:19.637Z,99332.69
2022-08-16T12:53:52.772Z,99320.03
2022-08-16T12:56:21.502Z,99328.88
2022-08-16T12:58:52.239Z,99329.72
2022-08-16T13:01:22.709Z,99323.50
2022-08-16T13:04:08.184Z,99329.66
2022-08-16T13:06:38.262Z,99327.31
2022-08-16T13:09:20.451Z,99325.06
2022-08-16T13:11:59.985Z,99326.50
2022-08-16T13:14:32.955Z,99320.28
2022-08-16T13:17:01.511Z,99320.28
2022-08-16T13:19:56.033Z,99316.50
2022-08-16T13:22:18.666Z,99314.94
2022-08-16T13:24:47.553Z,99323.41
2022-08-16T13:27:15.001Z,99315.72
2022-08-16T13:29:44.327Z,99317.63
2022-08-16T13:32:39.562Z,99308.63
2022-08-16T13:34:58.654Z,99308.28
2022-08-16T13:37:30.006Z,99315.19
2022-08-16T13:39:56.897Z,99305.94
2022-08-16T13:42:25.267Z,99312.75
2022-08-16T13:44:58.077Z,99305.69
2022-08-16T13:47:30.022Z,99299.41
2022-08-16T13:49:57.723Z,99304.66
2022-08-16T13:52:25.427Z,99291.34
2022-08-16T13:55:01.399Z,99296.41
2022-08-16T13:58:35.258Z,99300.44
2022-08-16T14:00:19.573Z,99301.53
2022-08-16T14:02:48.936Z,99294.38
2022-08-16T14:05:15.984Z,99299.41
2022-08-16T14:07:52.824Z,99307.59
2022-08-16T14:10:19.883Z,99306.25
2022-08-16T14:12:48.167Z,99307.75
2022-08-16T14:15:16.136Z,99320.16
2022-08-16T14:18:15.501Z,99307.19
2022-08-16T14:20:30.978Z,99294.03
2022-08-16T14:22:58.245Z,99294.38
2022-08-16T14:25:26.943Z,99298.59
2022-08-16T14:27:55.053Z,99293.31
2022-08-16T14:30:23.290Z,99301.28
2022-08-16T14:32:51.353Z,99289.00
2022-08-16T14:35:29.200Z,99289.34
2022-08-16T14:38:05.037Z,99293.25
2022-08-16T14:40:32.285Z,99298.16
2022-08-16T14:43:05.618Z,99284.81
2022-08-16T14:45:34.533Z,99293.25
2022-08-16T14:48:01.304Z,99285.22
2022-08-16T14:50:30.750Z,99288.63
2022-08-16T14:53:03.792Z,99286.66
2022-08-16T14:55:32.197Z,99295.84
2022-08-16T14:58:00.048Z,99293.97
2022-08-16T15:00:33.890Z,99290.03
2022-08-16T15:03:09.842Z,99283.44
2022-08-16T15:05:37.425Z,99288.81
2022-08-16T15:08:04.725Z,99285.84
2022-08-16T15:10:32.554Z,99285.06
2022-08-16T15:13:03.456Z,99272.44
2022-08-16T15:15:31.335Z,99274.22
2022-08-16T15:17:58.704Z,99278.38
2022-08-16T15:20:30.749Z,99276.84
2022-08-16T15:22:59.764Z,99274.97
2022-08-16T15:25:29.673Z,99281.44
2022-08-16T15:27:57.567Z,99282.22
2022-08-16T15:30:56.611Z,99277.59
2022-08-16T15:33:15.398Z,99282.94
2022-08-16T15:35:44.463Z,99282.16
2022-08-16T15:38:55.322Z,99284.06
2022-08-16T15:40:59.394Z,99279.78
2022-08-16T15:43:38.984Z,99279.72
2022-08-16T15:46:54.232Z,99283.56
2022-08-16T15:49:09.692Z,99288.06
2022-08-16T15:51:41.267Z,99286.47
2022-08-16T15:54:28.962Z,99283.41
2022-08-16T15:56:56.799Z,99276.50
2022-08-16T15:59:27.453Z,99278.38
2022-08-16T16:02:02.094Z,99279.09
2022-08-16T16:04:31.764Z,99272.47
2022-08-16T16:06:59.374Z,99273.88
2022-08-16T16:09:36.793Z,99265.41
2022-08-16T16:12:34.130Z,99277.59
2022-08-16T16:14:55.072Z,99276.03
2022-08-16T16:17:22.390Z,99272.94
2022-08-16T16:19:53.629Z,99286.69
2022-08-16T16:22:25.254Z,99281.28
2022-08-16T16:24:53.335Z,99281.22
2022-08-16T16:27:22.771Z,99288.03
2022-08-16T16:29:58.121Z,99284.53
2022-08-16T16:32:34.470Z,99280.31
2022-08-16T16:35:02.319Z,99284.94
2022-08-16T16:37:31.298Z,99290.28
2022-08-16T16:39:58.846Z,99294.06
2022-08-16T16:42:29.761Z,99284.75
2022-08-16T16:45:01.441Z,99297.66
2022-08-16T16:47:40.675Z,99294.47
2022-08-16T16:50:09.855Z,99291.28
2022-08-16T16:52:43.827Z,99294.28
2022-08-16T16:55:12.959Z,99303.34
2022-08-16T16:58:00.383Z,99294.81
2022-08-16T17:00:37.731Z,99297.78
2022-08-16T17:03:06.225Z,99302.25
2022-08-16T17:05:57.243Z,99312.91
2022-08-16T17:08:30.608Z,99312.03
2022-08-16T17:10:57.941Z,99314.22
2022-08-16T17:13:24.887Z,99316.03
2022-08-16T17:15:54.166Z,99319.34
2022-08-16T17:19:14.590Z,99324.94
2022-08-16T17:21:09.787Z,99326.69
2022-08-16T17:23:58.695Z,99324.25
2022-08-16T17:26:30.125Z,99329.53
2022-08-16T17:29:02.611Z,99329.69
2022-08-16T17:31:40.788Z,99335.31
2022-08-16T17:34:28.623Z,99334.44
2022-08-16T17:36:58.730Z,99335.13
2022-08-16T17:39:29.586Z,99338.84
2022-08-16T17:42:01.202Z,99349.44
2022-08-16T17:44:28.896Z,99348.81
2022-08-16T17:46:56.019Z,99351.34
2022-08-16T17:49:23.053Z,99349.66
2022-08-16T17:51:50.284Z,99352.25
2022-08-16T17:54:29.821Z,99354.28
2022-08-16T17:56:58.611Z,99358.34
2022-08-16T17:59:28.257Z,99360.81
2022-08-16T18:01:56.252Z,99360.28
2022-08-16T18:04:49.340Z,99364.66
2022-08-16T18:07:11.754Z,99361.69
2022-08-16T18:09:41.055Z,99370.34
2022-08-16T18:12:44.470Z,99371.72
2022-08-16T18:15:02.428Z,99375.38
2022-08-16T18:17:32.051Z,99371.75
2022-08-16T18:19:58.989Z,99376.53
2022-08-16T18:22:30.547Z,99383.19
2022-08-16T18:24:58.105Z,99376.13
2022-08-16T18:27:27.073Z,99379.75
2022-08-16T18:29:57.678Z,99378.13
2022-08-16T18:32:25.224Z,99384.13
2022-08-16T18:34:54.993Z,99383.22
2022-08-16T18:37:23.281Z,99389.22
2022-08-16T18:39:50.272Z,99392.19
2022-08-16T18:42:17.198Z,99392.41
2022-08-16T18:44:44.604Z,99391.88
2022-08-16T18:47:11.561Z,99394.13
2022-08-16T18:49:38.394Z,99397.84
2022-08-16T18:52:05.578Z,99399.97
2022-08-16T18:54:33.215Z,99401.88
2022-08-16T18:57:02.410Z,99402.53
2022-08-16T18:59:33.283Z,99393.63
2022-08-16T19:02:04.833Z,99396.97
2022-08-16T19:04:55.770Z,99404.03
2022-08-16T19:07:30.894Z,99406.25
2022-08-16T19:10:00.048Z,99403.81
2022-08-16T19:12:38.586Z,99406.81
2022-08-16T19:15:13.535Z,99408.56
2022-08-16T19:17:41.452Z,99408.47
2022-08-16T19:20:11.065Z,99411.00
2022-08-16T19:23:02.682Z,99412.44
2022-08-16T19:25:46.283Z,99412.63
2022-08-16T19:28:33.355Z,99418.16
2022-08-16T19:31:01.443Z,99421.81
2022-08-16T19:33:28.958Z,99419.38
2022-08-16T19:35:55.934Z,99421.88
2022-08-16T19:38:22.922Z,99426.78
2022-08-16T19:40:50.543Z,99421.31
2022-08-16T19:43:17.480Z,99422.75
2022-08-16T19:45:46.329Z,99427.94
2022-08-16T19:48:13.714Z,99429.69
2022-08-16T19:50:40.680Z,99429.25
2022-08-16T19:53:19.226Z,99420.34
2022-08-16T19:55:47.605Z,99427.88
2022-08-16T19:58:15.488Z,99426.63
2022-08-16T20:00:43.422Z,99424.59
2022-08-16T20:03:12.798Z,99420.41
2022-08-16T20:05:41.280Z,99418.84
2022-08-16T20:08:08.643Z,99420.28
2022-08-16T20:10:35.839Z,99422.47
2022-08-16T20:13:03.029Z,99423.13
2022-08-16T20:15:31.012Z,99430.81
2022-08-16T20:17:58.855Z,99426.25
2022-08-16T20:20:26.732Z,99425.78
2022-08-16T20:22:54.627Z,99427.69
2022-08-16T20:25:28.066Z,99422.66
2022-08-16T20:27:55.748Z,99426.75
2022-08-16T20:30:23.212Z,99428.19
2022-08-16T20:32:50.564Z,99432.75
2022-08-16T20:35:18.293Z,99424.28
2022-08-16T20:37:47.392Z,99432.91
2022-08-16T20:40:34.376Z,99433.69
2022-08-16T20:43:04.755Z,99438.56
2022-08-16T20:45:33.044Z,99435.44
2022-08-16T20:48:01.850Z,99435.78
2022-08-16T20:50:29.045Z,99436.09
2022-08-16T20:52:56.712Z,99437.03
2022-08-16T20:55:24.280Z,99444.25
2022-08-16T20:57:56.541Z,99450.22
2022-08-16T21:00:24.756Z,99448.66
2022-08-16T21:02:51.743Z,99459.94
2022-08-16T21:05:22.984Z,99462.13
2022-08-16T21:07:51.942Z,99455.56
2022-08-16T21:10:21.188Z,99449.78
2022-08-16T21:12:49.532Z,99459.63
2022-08-16T21:15:17.294Z,99455.75
2022-08-16T21:17:44.504Z,99459.81
2022-08-16T21:20:11.743Z,99457.94
2022-08-16T21:22:39.495Z,99460.13
2022-08-16T21:25:09.890Z,99456.38
2022-08-16T21:27:38.798Z,99457.94
2022-08-16T21:30:29.982Z,99455.75
2022-08-16T21:33:03.644Z,99462.16
2022-08-16T21:35:30.791Z,99456.84
2022-08-16T21:38:01.033Z,99459.81
2022-08-16T21:40:45.264Z,99460.59
2022-08-16T21:43:13.286Z,99467.66
2022-08-16T21:45:40.852Z,99471.75
2022-08-16T21:48:08.086Z,99464.69
2022-08-16T21:50:35.476Z,99473.31
2022-08-16T21:53:06.445Z,99475.53
2022-08-16T21:55:34.218Z,99470.88
2022-08-16T21:58:01.131Z,99476.78
2022-08-16T22:00:28.338Z,99474.78
2022-08-16T22:02:57.719Z,99472.75
2022-08-16T22:05:25.511Z,99468.84
2022-08-16T22:07:52.359Z,99470.25
2022-08-16T22:11:05.055Z,99471.69
2022-08-16T22:13:13.554Z,99466.38
2022-08-16T22:15:40.741Z,99470.91
2022-08-16T22:18:07.561Z,99474.00
2022-08-16T22:20:34.702Z,99477.13
2022-08-16T22:23:10.500Z,99477.13
2022-08-16T22:25:38.061Z,99481.66
2022-08-16T22:28:05.834Z,99478.22
2022-08-16T22:30:32.780Z,99485.41
2022-08-16T22:33:00.307Z,99485.41
2022-08-16T22:35:27.403Z,99490.59
2022-08-16T22:38:50.434Z,99482.16
2022-08-16T22:40:43.337Z,99473.59
2022-08-16T22:43:10.353Z,99476.09
2022-08-16T22:45:37.277Z,99476.22
2022-08-16T22:48:05.074Z,99470.00
2022-08-16T22:50:32.630Z,99474.41
2022-08-16T22:52:59.666Z,99469.69
2022-08-16T22:55:27.322Z,99471.09
2022-08-16T22:57:54.499Z,99464.84
2022-08-16T23:00:22.523Z,99460.94
2022-08-16T23:03:00.904Z,99461.28
2022-08-16T23:05:29.202Z,99458.63
2022-08-16T23:07:57.043Z,99456.28
2022-08-16T23:10:24.298Z,99457.69
2022-08-16T23:12:57.292Z,99459.25
2022-08-16T23:15:25.201Z,99461.59
2022-08-16T23:17:53.937Z,99455.81
2022-08-16T23:20:23.378Z,99454.25
2022-08-16T23:23:20.504Z,99465.97
2022-08-16T23:25:40.553Z,99452.38
2022-08-16T23:28:07.957Z,99455.81
2022-08-16T23:30:40.592Z,99450.50
2022-08-16T23:33:09.937Z,99454.72
2022-08-16T23:35:45.040Z,99456.91
2022-08-16T23:38:39.056Z,99456.75
2022-08-16T23:41:01.911Z,99457.56
2022-08-16T23:43:31.762Z,99458.94
2022-08-16T23:46:03.253Z,99460.47
2022-08-16T23:48:32.046Z,99461.44
2022-08-16T23:51:19.321Z,99460.97
2022-08-16T23:53:47.230Z,99458.13
2022-08-16T23:56:20.820Z,99464.41
2022-08-16T23:58:49.733Z,99463.47
